MCAS Cherry Point, North Carolina
Current Conditions -  °F | °C
As of 6:54 AM on Thursday 29 Jan 2015 (Local Time) from KNKT Reporting Station
Clear Clear  
Wind Chill: 25°   Ceiling: Unl
Heat Index: 25°   Visibility: 10mi
Dew Point: 18°   Wind: 0mph
Humidity: 75%   Direction: NA
Pressure: 30.37"   Gusts: NA
Location:  34.8973°N, 76.9091°W
Report Text: KNKT 291154Z 00000KT 10SM CLR M04/M08 A3037 RMK AO2 SLP280 T10391078 10006 21039 53012 $
Loading
Personal Weather Stations






























Interactive Weather Map New forecast layout! Learn more

10-Day Weather Forecast

Advertisements
Track Severe Weather on mobile